Etusivu
METAR-TAF:

METAR-TAF

Lentoasemat :

Anoka County-Blaine Airport (Janes Field)

Minneapolis / Blaine, Minnesota, Yhdysvallat

Leveyspiiri: 45-09N, Pituuspiiri: 093-13W, korkeus merenpinnasta: 278 m

Tämänhetkinen sää

Tämä raportti tehtiin 23 minuuttia sitten, kello 11.56 UTC
tyyntä
Lämpötila -6°C
Kosteus 100%
Ilmanpaine 1015 hPa
Näkyvyys: 16.1 km
selkeää

METAR: KANE 241156Z AUTO 00000KT 10SM CLR M06/M06 A2998 RMK AO2

Aika: 06:19 (12:19 UTC)


TAF: puuttuu

Säähavainnot ja -ennusteet yli 4000 lentoasemalta (METAR- ja TAF-raportit).

Käytössä olevat sääasemat on merkitty karttaan keltaisilla ja punaisilla pisteillä.

Aseta hiiri pisteen päälle nähdäksesi sääaseman nimen.

Klikkaa sitten nähdäksesi säähavainnot ja -ennusteet.

Kartan vaihtaminen: klikkaa mustalla rastilla varustettuja vihreitä pisteitä, niin voit zoomata sisään; viivalla varustettua vihreää pistettä, niin voit zoomata ulos tai vihreitä nuolia, niin pääset viereisille kartoille.


METAR-TAF: